Time;durP1;ratioP1;P1;durP2;ratioP2;P2;SDS_P1;SDS_P2;PMS_P1;PMS_P2;Temp;Humidity;BMP_temperature;BMP_pressure;BME280_temperature;BME280_humidity;BME280_pressure;Samples;Min_cycle;Max_cycle;Signal;HPM_P1;HPM_P2
2021/09/27 00:00:10;;;;;;;23.75;13.13;;;;;;;16.50;86.81;101544.19;5051351;28;20104;-64
2021/09/27 00:02:36;;;;;;;19.35;13.25;;;;;;;16.48;86.70;101546.97;5050795;28;20025;-63
2021/09/27 00:05:04;;;;;;;18.77;13.32;;;;;;;16.44;87.29;101541.88;5050308;28;20032;-72
2021/09/27 00:07:29;;;;;;;19.70;14.00;;;;;;;16.40;87.35;101530.50;5043256;28;20029;-62
2021/09/27 00:09:54;;;;;;;20.92;14.20;;;;;;;16.35;87.32;101544.13;5035691;28;20064;-62
2021/09/27 00:12:20;;;;;;;20.17;13.23;;;;;;;16.30;87.81;101524.81;5030436;28;20409;-69
2021/09/27 00:14:45;;;;;;;19.50;13.05;;;;;;;16.26;88.05;101530.47;5046758;28;20068;-73
2021/09/27 00:17:10;;;;;;;20.17;13.52;;;;;;;16.23;87.85;101531.50;5050681;28;20146;-63
2021/09/27 00:19:37;;;;;;;19.15;13.32;;;;;;;16.17;88.46;101531.84;5049974;28;20059;-62
2021/09/27 00:22:05;;;;;;;20.50;14.02;;;;;;;16.14;88.54;101527.53;5050744;28;20114;-70
2021/09/27 00:24:30;;;;;;;20.50;14.60;;;;;;;16.13;88.77;101525.81;5050206;28;20025;-68
2021/09/27 00:26:56;;;;;;;20.83;13.68;;;;;;;16.11;88.52;101521.50;5050186;28;20072;-64
2021/09/27 00:29:21;;;;;;;19.63;13.63;;;;;;;16.05;88.76;101514.72;5050580;28;20033;-62
2021/09/27 00:31:46;;;;;;;20.88;14.02;;;;;;;16.00;88.74;101516.78;5049856;28;20076;-64
2021/09/27 00:34:12;;;;;;;24.75;14.88;;;;;;;15.97;89.56;101511.59;5049068;28;20468;-69
2021/09/27 00:36:37;;;;;;;19.92;14.20;;;;;;;15.94;89.19;101499.28;5049734;28;20048;-61
2021/09/27 00:39:05;;;;;;;22.85;14.93;;;;;;;15.93;90.01;101504.72;5049083;28;20361;-66
2021/09/27 00:41:31;;;;;;;22.35;15.65;;;;;;;15.94;89.72;101509.13;5048653;28;20059;-62
2021/09/27 00:43:56;;;;;;;21.58;14.57;;;;;;;15.92;90.27;101501.19;5048942;28;20096;-73
2021/09/27 00:46:26;;;;;;;23.15;15.27;;;;;;;15.92;89.66;101500.31;5048810;28;20032;-62
2021/09/27 00:48:52;;;;;;;20.40;14.65;;;;;;;15.88;90.15;101500.50;5049487;28;20067;-73
2021/09/27 00:51:24;;;;;;;22.77;15.02;;;;;;;15.86;90.10;101502.38;5048422;28;20029;-62
2021/09/27 00:54:07;;;;;;;22.17;14.82;;;;;;;15.85;90.68;101511.34;5049116;28;20048;-62
2021/09/27 00:56:41;;;;;;;21.45;16.23;;;;;;;15.85;90.88;101506.00;5048687;28;20575;-62
2021/09/27 00:59:08;;;;;;;22.05;14.90;;;;;;;15.88;90.61;101507.63;5048407;28;20587;-62
2021/09/27 01:01:34;;;;;;;23.85;15.70;;;;;;;15.86;90.33;101515.75;5048573;28;20570;-62
2021/09/27 01:03:59;;;;;;;25.65;16.90;;;;;;;15.83;90.97;101499.91;5048364;28;20097;-62
2021/09/27 01:06:24;;;;;;;24.90;16.20;;;;;;;15.81;90.76;101496.44;5049245;28;20106;-62
2021/09/27 01:09:07;;;;;;;22.20;14.97;;;;;;;15.76;90.43;101490.47;5049260;28;20035;-62
2021/09/27 01:12:07;;;;;;;24.30;17.15;;;;;;;15.72;90.78;101497.78;5047968;28;20317;-62
2021/09/27 01:15:00;;;;;;;27.45;18.00;;;;;;;15.72;91.00;101488.94;5049129;28;20441;-63
2021/09/27 01:17:47;;;;;;;25.08;17.20;;;;;;;15.72;90.97;101489.78;5048686;28;20060;-69
2021/09/27 01:20:21;;;;;;;25.77;17.08;;;;;;;15.72;91.26;101494.28;5049017;28;20025;-62
2021/09/27 01:23:05;;;;;;;26.85;16.83;;;;;;;15.70;91.31;101485.47;5048582;28;20029;-67
2021/09/27 01:25:36;;;;;;;25.45;17.30;;;;;;;15.67;91.53;101489.19;5048757;28;20079;-63
2021/09/27 01:28:20;;;;;;;29.27;17.42;;;;;;;15.64;91.47;101485.81;5048229;28;20051;-71
2021/09/27 01:30:54;;;;;;;26.40;17.10;;;;;;;15.62;91.52;101490.41;5011025;28;1069921;-62
2021/09/27 01:33:47;;;;;;;25.30;16.92;;;;;;;15.60;92.03;101490.50;5049778;28;20134;-65
2021/09/27 01:36:42;;;;;;;26.08;17.52;;;;;;;15.58;91.65;101484.34;5048990;28;20362;-63
2021/09/27 01:39:19;;;;;;;27.70;17.48;;;;;;;15.56;92.16;101497.81;5029806;28;20041;-63
2021/09/27 01:42:12;;;;;;;26.63;17.15;;;;;;;15.54;92.23;101497.00;5048391;28;20101;-62
2021/09/27 01:44:50;;;;;;;31.30;18.63;;;;;;;15.50;92.56;101498.13;5049094;28;20040;-64
2021/09/27 01:47:30;;;;;;;29.67;17.75;;;;;;;15.50;92.24;101505.25;5049104;28;20079;-62
2021/09/27 01:49:59;;;;;;;26.40;16.33;;;;;;;15.49;92.71;101501.75;5049055;28;20059;-70
2021/09/27 01:52:33;;;;;;;26.98;18.00;;;;;;;15.45;92.69;101496.66;5048316;28;20449;-69
2021/09/27 01:55:08;;;;;;;27.70;17.50;;;;;;;15.42;92.97;101494.16;5049246;28;20071;-64
2021/09/27 01:57:55;;;;;;;28.38;17.75;;;;;;;15.37;92.84;101491.72;5048605;28;20369;-63
2021/09/27 02:00:50;;;;;;;28.63;18.13;;;;;;;15.33;93.51;101499.06;5048924;28;20092;-62
2021/09/27 02:03:33;;;;;;;29.77;18.95;;;;;;;15.33;93.30;101499.06;5048689;28;20087;-69
2021/09/27 02:06:16;;;;;;;33.97;18.83;;;;;;;15.33;93.19;101499.06;5049563;28;20028;-63
2021/09/27 02:09:00;;;;;;;31.83;20.83;;;;;;;15.34;93.87;101494.59;5048768;28;20079;-65
2021/09/27 02:11:30;;;;;;;32.25;19.83;;;;;;;15.41;93.88;101493.31;5049042;28;20040;-62
2021/09/27 02:14:26;;;;;;;33.25;20.23;;;;;;;15.48;93.92;101492.00;5048126;28;20483;-65
2021/09/27 02:17:03;;;;;;;33.67;20.52;;;;;;;15.50;93.84;101494.59;5048605;28;20037;-62
2021/09/27 02:20:01;;;;;;;35.83;21.92;;;;;;;15.59;93.92;101493.22;5048942;28;20039;-67
2021/09/27 02:22:51;;;;;;;35.45;20.45;;;;;;;15.63;93.27;101489.47;5048097;28;20059;-65
2021/09/27 02:25:18;;;;;;;32.53;19.90;;;;;;;15.63;93.46;101486.78;5028853;28;20131;-64
2021/09/27 02:27:46;;;;;;;33.67;22.15;;;;;;;15.62;93.18;101483.22;5028922;28;20493;-62
2021/09/27 02:30:15;;;;;;;33.97;21.05;;;;;;;15.58;93.16;101476.34;5038953;28;20033;-62
2021/09/27 02:32:58;;;;;;;36.95;23.20;;;;;;;15.56;93.69;101476.44;5048165;28;20048;-62
2021/09/27 02:35:35;;;;;;;40.78;22.55;;;;;;;15.53;93.33;101479.25;5048608;28;20087;-66
2021/09/27 02:38:08;;;;;;;40.03;22.42;;;;;;;15.51;93.56;101474.97;5048662;28;20136;-61
2021/09/27 02:40:50;;;;;;;39.03;22.85;;;;;;;15.51;93.64;101475.84;5048174;28;20105;-62
2021/09/27 02:43:15;;;;;;;;;;;;;;;15.52;94.02;101474.88;5048335;28;20583;-63
2021/09/27 02:45:44;;;;;;;37.17;22.58;;;;;;;15.52;93.88;101480.22;5048440;28;19928;-62
2021/09/27 02:48:34;;;;;;;36.35;21.50;;;;;;;15.52;94.18;101482.03;5048320;28;20036;-62
2021/09/27 02:51:00;;;;;;;38.30;23.27;;;;;;;15.47;93.93;101474.25;5047948;28;20040;-62
2021/09/27 02:53:25;;;;;;;42.10;23.10;;;;;;;15.47;94.08;101473.41;5048203;28;20048;-61
2021/09/27 02:56:08;;;;;;;38.78;23.55;;;;;;;15.45;94.41;101470.84;5047877;28;20453;-62
2021/09/27 02:58:45;;;;;;;39.53;24.17;;;;;;;15.45;94.08;101467.28;5048400;28;20033;-62
2021/09/27 03:01:19;;;;;;;43.35;22.98;;;;;;;15.42;94.07;101468.31;5047569;28;20041;-64
2021/09/27 03:04:05;;;;;;;39.97;24.52;;;;;;;15.40;93.98;101463.06;5048022;28;20057;-62
2021/09/27 03:06:52;;;;;;;37.30;23.58;;;;;;;15.39;94.30;101463.16;5047907;28;20507;-62
2021/09/27 03:09:33;;;;;;;38.65;23.00;;;;;;;15.35;94.00;101465.13;5047845;28;20040;-62
2021/09/27 03:12:14;;;;;;;43.65;24.15;;;;;;;15.31;94.26;101460.06;5047436;28;20055;-64
2021/09/27 03:15:09;;;;;;;39.50;24.63;;;;;;;15.26;94.35;101452.31;5047480;28;20108;-62
2021/09/27 03:17:49;;;;;;;42.72;23.67;;;;;;;15.19;94.45;101454.47;5005796;28;20169;-68
2021/09/27 03:20:23;;;;;;;39.97;23.27;;;;;;;15.14;94.22;101453.84;5005751;28;20106;-65
2021/09/27 03:22:56;;;;;;;39.05;23.17;;;;;;;15.13;94.59;101453.91;5011552;28;20061;-62
2021/09/27 03:25:27;;;;;;;42.88;24.35;;;;;;;15.11;94.56;101461.16;5025180;28;20041;-61
2021/09/27 03:28:08;;;;;;;40.95;25.00;;;;;;;15.07;94.83;101460.44;5025484;28;20026;-66
2021/09/27 03:30:54;;;;;;;41.95;25.58;;;;;;;15.04;94.83;101460.63;5025256;28;20034;-62
2021/09/27 03:33:31;;;;;;;38.05;23.77;;;;;;;15.00;95.01;101449.25;5024883;28;20120;-61
2021/09/27 03:36:37;;;;;;;42.42;24.27;;;;;;;14.98;95.00;101448.47;5025226;28;20457;-62
2021/09/27 03:39:23;;;;;;;38.72;23.23;;;;;;;14.96;95.04;101441.50;5025248;28;20068;-62
2021/09/27 03:42:01;;;;;;;43.83;24.75;;;;;;;14.93;95.43;101439.00;5025018;28;20049;-62
2021/09/27 03:44:44;;;;;;;41.97;24.20;;;;;;;14.91;95.54;101441.72;5025438;28;20108;-70
2021/09/27 03:47:11;;;;;;;39.80;24.08;;;;;;;14.85;95.45;101448.25;5024119;28;20033;-64
2021/09/27 03:49:54;;;;;;;44.45;26.40;;;;;;;14.82;95.33;101435.09;5025186;28;20026;-62
2021/09/27 03:52:26;;;;;;;45.72;25.92;;;;;;;14.80;95.66;101436.13;5025085;28;20195;-62
2021/09/27 03:55:05;;;;;;;43.22;25.20;;;;;;;14.79;95.65;101437.91;5033313;28;20113;-62
2021/09/27 03:57:56;;;;;;;43.92;25.00;;;;;;;14.76;95.83;101440.75;5047263;28;20101;-62
2021/09/27 04:00:49;;;;;;;50.53;25.25;;;;;;;14.74;95.93;101440.84;5047940;28;20037;-63
2021/09/27 04:04:01;;;;;;;44.42;24.45;;;;;;;14.73;95.79;101452.44;5025276;28;20136;-63
2021/09/27 04:06:34;;;;;;;49.60;26.50;;;;;;;14.71;95.93;101448.13;4946805;29;20190;-62
2021/09/27 04:09:07;;;;;;;46.85;26.45;;;;;;;14.72;95.90;101439.19;4947818;28;20047;-62
2021/09/27 04:11:39;;;;;;;43.40;25.75;;;;;;;14.67;95.91;101431.44;4963242;28;20160;-70
2021/09/27 04:14:19;;;;;;;45.22;26.75;;;;;;;14.66;96.10;101434.19;4952615;28;20055;-61
2021/09/27 04:16:55;;;;;;;49.22;27.40;;;;;;;14.64;96.04;101436.03;4949815;28;20035;-70
2021/09/27 04:19:46;;;;;;;47.08;29.55;;;;;;;14.62;95.96;101427.28;4958691;28;20074;-71
2021/09/27 04:22:14;;;;;;;52.42;30.85;;;;;;;14.58;96.16;101423.91;4969946;28;20061;-70
2021/09/27 04:24:53;;;;;;;58.83;30.70;;;;;;;14.55;96.27;101422.25;4969565;28;20097;-63
2021/09/27 04:27:21;;;;;;;58.08;31.17;;;;;;;14.52;96.45;101422.41;4957934;28;20562;-62
2021/09/27 04:30:05;;;;;;;54.60;30.13;;;;;;;14.53;96.65;101413.47;4951570;28;20118;-62
2021/09/27 04:32:48;;;;;;;53.90;31.23;;;;;;;14.50;96.50;101418.97;4969212;28;20121;-73
2021/09/27 04:35:52;;;;;;;57.88;31.83;;;;;;;14.50;96.72;101410.97;4969263;28;20035;-62
2021/09/27 04:38:19;;;;;;;59.70;30.40;;;;;;;14.50;96.90;101416.31;4954893;28;20035;-62
2021/09/27 04:41:26;;;;;;;54.88;29.85;;;;;;;14.51;96.99;101410.00;4964030;28;20042;-72
2021/09/27 04:44:00;;;;;;;52.78;28.40;;;;;;;14.53;96.74;101418.81;5030134;28;20351;-66
2021/09/27 04:46:44;;;;;;;56.40;30.23;;;;;;;14.53;96.82;101407.28;5030927;28;20163;-62
2021/09/27 04:49:22;;;;;;;52.03;28.95;;;;;;;14.52;97.00;101422.41;5045947;28;20453;-62
2021/09/27 04:52:08;;;;;;;56.17;29.95;;;;;;;14.51;97.04;101418.00;5050622;28;20077;-72
2021/09/27 04:55:01;;;;;;;51.00;28.25;;;;;;;14.52;97.15;101418.88;5050548;28;20116;-61
2021/09/27 04:57:29;;;;;;;52.50;28.20;;;;;;;14.51;97.13;101415.34;5050193;28;20041;-64
2021/09/27 05:00:13;;;;;;;49.00;27.52;;;;;;;14.53;97.14;101418.81;5049786;28;20044;-61
2021/09/27 05:02:47;;;;;;;51.90;27.50;;;;;;;14.54;97.09;101417.88;5050187;28;20056;-62
2021/09/27 05:05:25;;;;;;;53.13;28.05;;;;;;;14.54;97.00;101404.53;5049434;28;20040;-61
2021/09/27 05:08:05;;;;;;;49.80;27.75;;;;;;;14.53;97.10;101402.81;5048346;28;20033;-66
2021/09/27 05:10:54;;;;;;;54.35;28.80;;;;;;;14.53;96.94;101394.81;5049564;28;20479;-62
2021/09/27 05:14:01;;;;;;;49.97;28.05;;;;;;;14.54;97.02;101391.22;5049682;28;20369;-62
2021/09/27 05:16:48;;;;;;;51.80;27.83;;;;;;;14.55;97.19;101390.28;5027142;28;20128;-61
2021/09/27 05:19:24;;;;;;;60.10;31.48;;;;;;;14.55;97.25;101394.72;5027134;28;20148;-62
2021/09/27 05:22:37;;;;;;;55.88;32.15;;;;;;;14.55;97.37;101384.94;5021728;28;20041;-61
2021/09/27 05:25:12;;;;;;;61.67;31.23;;;;;;;14.55;97.34;101386.72;4967807;28;20046;-62
2021/09/27 05:27:52;;;;;;;63.08;32.58;;;;;;;14.55;97.32;101376.06;4968845;28;20131;-62
2021/09/27 05:30:45;;;;;;;58.85;30.92;;;;;;;14.56;97.25;101380.47;4967840;28;20038;-62
2021/09/27 05:33:29;;;;;;;56.70;29.17;;;;;;;14.57;97.34;101374.19;4949140;28;20453;-61
2021/09/27 05:36:13;;;;;;;52.17;29.13;;;;;;;14.62;97.73;101374.81;4949088;29;20043;-62
2021/09/27 05:39:04;;;;;;;58.25;30.10;;;;;;;14.65;97.76;101366.66;4949726;29;20055;-63
2021/09/27 05:42:06;;;;;;;52.15;28.48;;;;;;;14.70;97.29;101358.44;4944752;28;20082;-64
2021/09/27 05:44:58;;;;;;;50.05;27.48;;;;;;;14.78;97.53;101363.34;4967956;28;20035;-61
2021/09/27 05:47:29;;;;;;;47.78;27.20;;;;;;;14.82;97.04;101363.13;4968693;28;20130;-61
2021/09/27 05:50:01;;;;;;;;;;;;;;;14.86;96.97;101359.34;4968003;28;20061;-63
2021/09/27 05:52:39;;;;;;;51.42;26.52;;;;;;;14.94;97.16;101360.72;4970579;28;19939;-62
2021/09/27 05:55:31;;;;;;;46.33;25.67;;;;;;;15.01;96.57;101370.09;4987870;28;20126;-62
2021/09/27 05:58:02;;;;;;;44.67;25.10;;;;;;;15.05;96.31;101367.19;4986607;28;20053;-61
2021/09/27 06:00:35;;;;;;;41.58;25.38;;;;;;;15.10;95.94;101366.91;4990389;28;20113;-61
2021/09/27 06:03:19;;;;;;;40.65;25.60;;;;;;;15.17;95.83;101368.31;5047486;28;20060;-61
2021/09/27 06:06:13;;;;;;;42.08;26.00;;;;;;;15.22;95.43;101365.38;5048891;28;20039;-62
2021/09/27 06:08:53;;;;;;;37.67;24.45;;;;;;;15.33;94.67;101359.44;5026459;28;20489;-62
2021/09/27 06:11:39;;;;;;;34.88;23.98;;;;;;;15.45;94.10;101353.41;5026643;28;20504;-61
2021/09/27 06:14:10;;;;;;;33.28;21.23;;;;;;;15.54;93.07;101357.34;5025831;28;20124;-61
2021/09/27 06:17:01;;;;;;;31.25;20.83;;;;;;;15.62;92.74;101357.75;5026769;28;20040;-66
2021/09/27 06:19:35;;;;;;;34.50;23.38;;;;;;;15.64;92.24;101353.22;5015425;28;20038;-61
2021/09/27 06:22:17;;;;;;;39.08;24.08;;;;;;;15.66;91.92;101355.78;5039854;28;20044;-66
2021/09/27 06:24:53;;;;;;;32.88;21.60;;;;;;;15.68;91.96;101360.09;5026191;28;20103;-64
2021/09/27 06:27:41;;;;;;;32.92;21.60;;;;;;;15.68;92.18;101351.22;5015017;28;20034;-66
2021/09/27 06:30:33;;;;;;;27.73;19.30;;;;;;;15.73;91.75;101351.81;5024819;28;20052;-61
2021/09/27 06:33:22;;;;;;;28.17;19.30;;;;;;;15.77;91.48;101350.69;5016255;28;20045;-62
2021/09/27 06:35:50;;;;;;;28.85;18.60;;;;;;;15.80;91.46;101339.81;5025684;28;20470;-62
2021/09/27 06:38:18;;;;;;;26.73;17.75;;;;;;;15.85;90.92;101336.91;5025075;28;20028;-62
2021/09/27 06:40:49;;;;;;;25.48;16.70;;;;;;;15.88;90.30;101326.03;5019344;28;20040;-62
2021/09/27 06:43:18;;;;;;;24.85;16.13;;;;;;;15.89;90.16;101317.06;5006444;28;20038;-62
2021/09/27 06:45:45;;;;;;;24.88;15.82;;;;;;;15.92;90.27;101308.00;5033630;28;20136;-64
2021/09/27 06:48:10;;;;;;;22.77;15.10;;;;;;;15.95;90.27;101307.84;5048353;28;20044;-61
2021/09/27 06:50:35;;;;;;;22.55;14.32;;;;;;;15.99;89.47;101314.72;5047119;28;20123;-63
2021/09/27 06:53:01;;;;;;;20.40;14.05;;;;;;;16.02;89.42;101318.06;5034481;28;20033;-63
2021/09/27 06:55:26;;;;;;;22.13;14.40;;;;;;;16.04;89.55;101307.28;5032490;28;20047;-63
2021/09/27 06:57:52;;;;;;;20.05;14.25;;;;;;;16.09;88.90;101301.66;5043289;28;20025;-65
2021/09/27 07:00:17;;;;;;;20.88;12.88;;;;;;;16.15;89.13;101307.50;5048228;28;20141;-60
2021/09/27 07:02:42;;;;;;;20.13;14.23;;;;;;;16.16;88.62;101303.88;5046870;28;20061;-63
2021/09/27 07:05:10;;;;;;;22.00;14.25;;;;;;;16.17;88.69;101299.38;5049021;28;20381;-60
2021/09/27 07:07:36;;;;;;;20.58;14.07;;;;;;;16.19;89.00;101289.47;5048110;28;20029;-62
2021/09/27 07:10:04;;;;;;;21.17;14.13;;;;;;;16.26;88.54;101296.13;5047546;28;20062;-60
2021/09/27 07:12:29;;;;;;;19.60;14.63;;;;;;;16.29;88.41;101304.00;5049046;28;20044;-62
2021/09/27 07:14:55;;;;;;;21.77;15.35;;;;;;;16.32;89.06;101301.09;5048728;28;20028;-63
2021/09/27 07:17:20;;;;;;;19.83;13.90;;;;;;;16.40;88.53;101303.31;5048197;28;20024;-62
2021/09/27 07:19:45;;;;;;;20.77;12.65;;;;;;;16.48;87.83;101309.06;5052463;28;20550;-67
2021/09/27 07:22:11;;;;;;;18.85;13.65;;;;;;;16.53;87.89;101316.75;5050449;28;20076;-60
2021/09/27 07:24:38;;;;;;;19.23;13.43;;;;;;;16.54;87.72;101307.78;5047637;28;20128;-64
2021/09/27 07:27:03;;;;;;;21.00;13.52;;;;;;;16.59;87.98;101312.88;5049040;28;20466;-61
2021/09/27 07:29:29;;;;;;;21.65;14.35;;;;;;;16.59;87.76;101304.84;5042203;28;20109;-63
2021/09/27 07:31:54;;;;;;;20.65;13.65;;;;;;;16.70;87.53;101318.38;5042397;28;20069;-73
2021/09/27 07:34:20;;;;;;;23.58;15.10;;;;;;;16.67;87.62;101321.25;5048665;28;20078;-63
2021/09/27 07:36:47;;;;;;;23.13;16.38;;;;;;;16.72;86.98;101313.78;5048781;28;20365;-62
2021/09/27 07:39:12;;;;;;;27.23;15.75;;;;;;;16.79;86.79;101299.09;5047428;28;20029;-61
2021/09/27 07:41:38;;;;;;;21.88;16.70;;;;;;;16.91;86.40;101301.97;5048793;28;20096;-61
2021/09/27 07:44:04;;;;;;;26.90;17.00;;;;;;;16.97;86.11;101306.91;5048076;28;20433;-74
2021/09/27 07:46:30;;;;;;;23.70;17.45;;;;;;;16.88;86.64;101306.50;5048929;28;20045;-62
2021/09/27 07:48:55;;;;;;;23.65;17.25;;;;;;;16.91;86.87;101321.53;5045294;28;20040;-60
2021/09/27 07:51:22;;;;;;;26.73;18.83;;;;;;;16.80;87.05;101300.81;5052410;28;20029;-62
2021/09/27 07:53:47;;;;;;;25.27;18.52;;;;;;;16.76;87.55;101293.91;5050798;28;20120;-61
2021/09/27 07:56:12;;;;;;;27.17;18.00;;;;;;;16.77;87.52;101294.78;5051043;28;20037;-72
2021/09/27 07:58:38;;;;;;;26.67;19.20;;;;;;;16.80;87.41;101276.75;5050114;28;20029;-61
2021/09/27 08:01:03;;;;;;;27.17;19.77;;;;;;;16.82;87.65;101280.16;5051258;28;20028;-61
2021/09/27 08:03:28;;;;;;;27.77;20.02;;;;;;;16.87;87.29;101287.91;5050610;28;20021;-64
2021/09/27 08:05:54;;;;;;;28.70;19.67;;;;;;;16.85;87.44;101289.81;5049259;28;20133;-62
2021/09/27 08:08:19;;;;;;;34.65;20.92;;;;;;;16.82;87.33;101298.88;5050445;28;20094;-62
2021/09/27 08:10:45;;;;;;;35.58;22.98;;;;;;;16.73;87.92;101291.44;5050953;28;20040;-66
2021/09/27 08:13:11;;;;;;;36.75;22.38;;;;;;;16.70;88.24;101294.31;5050663;28;20063;-73
2021/09/27 08:15:40;;;;;;;36.60;23.48;;;;;;;16.75;88.17;101283.31;5046616;28;20037;-73
2021/09/27 08:18:08;;;;;;;39.20;24.88;;;;;;;16.79;88.50;101274.13;5038250;28;20111;-73
2021/09/27 08:20:42;;;;;;;35.15;23.15;;;;;;;16.85;88.09;101269.28;5039400;28;20067;-73
2021/09/27 08:23:07;;;;;;;34.88;23.83;;;;;;;16.94;87.99;101272.34;5045475;28;20029;-69
2021/09/27 08:25:33;;;;;;;37.25;23.48;;;;;;;17.10;87.11;101280.25;5044752;28;20028;-73
2021/09/27 08:28:00;;;;;;;35.58;22.70;;;;;;;17.24;86.83;101264.13;5034672;28;20438;-73
2021/09/27 08:30:32;;;;;;;34.63;21.02;;;;;;;17.50;85.90;101250.81;5050142;28;20135;-68
2021/09/27 08:32:59;;;;;;;28.67;20.85;;;;;;;17.69;84.52;101253.94;5049830;28;20036;-74
2021/09/27 08:35:26;;;;;;;27.88;21.13;;;;;;;17.76;84.21;101238.31;5046410;28;20024;-73
2021/09/27 08:37:54;;;;;;;27.50;20.25;;;;;;;17.80;83.62;101234.47;5040149;28;20347;-70
2021/09/27 08:41:02;;;;;;;29.25;20.33;;;;;;;17.77;83.88;101236.50;5049547;28;20267;-73
2021/09/27 08:43:39;;;;;;;28.65;20.05;;;;;;;17.76;83.67;101240.13;5024307;28;20758;-74
2021/09/27 08:46:38;;;;;;;29.33;19.63;;;;;;;17.80;83.53;101245.19;5023328;28;20111;-67
2021/09/27 08:49:34;;;;;;;26.17;18.75;;;;;;;17.87;82.83;101245.59;5025435;28;20572;-64
2021/09/27 08:52:01;;;;;;;24.77;18.30;;;;;;;17.91;82.96;101244.41;5026091;28;20115;-71
2021/09/27 08:54:29;;;;;;;26.33;18.23;;;;;;;17.98;82.79;101236.84;5027381;28;20566;-70
2021/09/27 08:57:27;;;;;;;23.60;17.70;;;;;;;18.02;82.66;101235.69;5027394;28;20037;-70
2021/09/27 08:59:55;;;;;;;22.15;16.63;;;;;;;18.22;81.37;101236.09;4968195;28;20129;-67
2021/09/27 09:02:31;;;;;;;22.23;15.50;;;;;;;18.29;80.79;101232.84;4968889;28;20045;-66
2021/09/27 09:05:09;;;;;;;21.02;15.23;;;;;;;18.19;80.81;101237.16;4967988;28;20602;-65
2021/09/27 09:07:44;;;;;;;17.92;13.35;;;;;;;18.20;80.39;101227.28;4968764;28;20039;-73
2021/09/27 09:10:12;;;;;;;18.00;13.45;;;;;;;18.18;80.69;101230.09;4952028;28;20083;-71
2021/09/27 09:12:58;;;;;;;17.08;12.27;;;;;;;18.20;80.05;101230.84;4968353;28;20039;-63
2021/09/27 09:15:28;;;;;;;16.10;11.18;;;;;;;18.12;80.20;101226.03;4968527;28;20081;-65
2021/09/27 09:17:53;;;;;;;14.90;10.77;;;;;;;18.14;80.08;101218.72;4967961;28;20431;-63
2021/09/27 09:20:30;;;;;;;16.30;10.80;;;;;;;18.06;80.34;101222.94;4976321;28;20064;-65
2021/09/27 09:22:58;;;;;;;13.38;10.02;;;;;;;18.11;79.89;101216.25;4988365;28;20030;-71
2021/09/27 09:25:32;;;;;;;15.63;10.32;;;;;;;18.16;80.09;101206.06;4987568;28;20031;-64
2021/09/27 09:27:59;;;;;;;15.52;9.70;;;;;;;18.28;78.89;101212.38;4987310;28;20034;-62
2021/09/27 09:30:49;;;;;;;16.45;9.52;;;;;;;18.42;79.17;101206.03;4986005;28;20124;-67
2021/09/27 09:33:33;;;;;;;14.90;9.45;;;;;;;18.61;77.82;101210.06;4967339;28;20126;-66
2021/09/27 09:35:59;;;;;;;15.52;9.50;;;;;;;18.72;77.32;101214.63;4970882;28;20046;-68
2021/09/27 09:38:24;;;;;;;15.40;9.80;;;;;;;18.66;77.28;101219.47;4987514;28;20042;-65
2021/09/27 09:40:54;;;;;;;13.50;9.68;;;;;;;18.70;77.93;101212.06;4986993;28;20053;-63
2021/09/27 09:43:27;;;;;;;14.77;9.38;;;;;;;18.75;77.84;101209.91;4986987;28;20046;-65
2021/09/27 09:46:13;;;;;;;14.07;9.23;;;;;;;18.79;76.65;101214.06;4986880;28;20022;-72
2021/09/27 09:48:58;;;;;;;18.95;9.10;;;;;;;18.73;77.00;101194.88;4987088;28;20046;-62
2021/09/27 09:51:52;;;;;;;12.63;8.15;;;;;;;18.74;77.04;101196.59;4986714;28;20042;-63
2021/09/27 09:54:25;;;;;;;14.15;9.07;;;;;;;18.73;77.60;101195.72;4945416;29;20403;-67
2021/09/27 09:57:21;;;;;;;12.73;9.02;;;;;;;18.76;76.84;101192.84;4948277;29;20116;-62
2021/09/27 10:00:33;;;;;;;12.70;9.00;;;;;;;18.74;76.71;101201.97;4948010;28;20050;-62
2021/09/27 10:02:59;;;;;;;16.23;8.23;;;;;;;18.77;76.86;101185.63;4947596;28;20111;-68
2021/09/27 10:05:34;;;;;;;17.90;8.70;;;;;;;18.80;76.95;101185.44;4947854;28;20043;-61
2021/09/27 10:08:06;;;;;;;12.50;7.63;;;;;;;18.86;76.64;101189.47;4948333;29;20034;-63
2021/09/27 10:10:38;;;;;;;12.43;7.82;;;;;;;18.88;76.26;101204.47;4982102;28;20085;-66
2021/09/27 10:13:35;;;;;;;10.70;6.80;;;;;;;19.02;74.47;101205.31;5008268;28;20040;-62
2021/09/27 10:16:22;;;;;;;13.63;6.50;;;;;;;19.21;73.33;101202.97;5013896;28;20030;-65
2021/09/27 10:18:48;;;;;;;10.82;6.45;;;;;;;19.37;72.52;101199.09;4993742;28;20053;-61
2021/09/27 10:21:15;;;;;;;10.13;5.30;;;;;;;19.47;71.67;101190.22;5007349;28;20034;-66
2021/09/27 10:23:45;;;;;;;9.73;5.90;;;;;;;19.41;71.46;101189.84;5013809;28;20449;-62
2021/09/27 10:26:30;;;;;;;11.40;4.82;;;;;;;19.59;70.89;101190.25;5008023;28;20096;-60
2021/09/27 10:29:12;;;;;;;12.35;5.03;;;;;;;19.67;69.82;101177.09;5011337;28;20062;-64
2021/09/27 10:31:41;;;;;;;10.18;4.90;;;;;;;19.73;70.54;101173.03;5025534;28;20085;-61
2021/09/27 10:34:15;;;;;;;10.98;4.85;;;;;;;19.76;69.75;101165.59;5049385;28;20057;-62
2021/09/27 10:36:47;;;;;;;6.80;4.35;;;;;;;19.93;68.73;101172.34;5048514;28;20077;-60
2021/09/27 10:39:16;;;;;;;11.73;4.47;;;;;;;19.87;68.09;101172.84;5041654;28;20026;-61
2021/09/27 10:41:49;;;;;;;8.43;3.65;;;;;;;20.07;67.70;101159.66;5044854;28;20048;-63
2021/09/27 10:44:23;;;;;;;6.97;3.47;;;;;;;20.14;66.63;101161.72;5040857;28;20102;-61
2021/09/27 10:46:52;;;;;;;7.22;3.88;;;;;;;20.38;66.03;101163.41;5038406;28;20037;-60
2021/09/27 10:49:29;;;;;;;7.57;3.53;;;;;;;21.58;61.60;101165.19;5045798;28;20231;-61
2021/09/27 10:52:06;;;;;;;7.53;3.55;;;;;;;22.86;57.80;101155.66;5046719;28;20107;-66
2021/09/27 10:54:34;;;;;;;8.75;3.30;;;;;;;23.17;56.09;101160.94;5048825;28;20071;-63
2021/09/27 10:57:00;;;;;;;6.43;3.03;;;;;;;22.64;57.88;101160.34;5047232;28;20033;-61
2021/09/27 10:59:32;;;;;;;7.03;3.20;;;;;;;22.01;59.39;101163.25;5037683;28;20070;-61
2021/09/27 11:02:26;;;;;;;9.00;3.63;;;;;;;21.50;62.14;101154.19;5047887;28;20087;-62
2021/09/27 11:05:02;;;;;;;7.15;3.67;;;;;;;21.40;62.33;101162.19;5049029;28;20073;-66
2021/09/27 11:07:45;;;;;;;9.55;3.58;;;;;;;21.36;62.80;101156.22;5043335;28;20044;-62
2021/09/27 11:10:48;;;;;;;6.28;3.30;;;;;;;21.96;59.91;101144.81;5046241;28;20040;-62
2021/09/27 11:13:40;;;;;;;6.88;3.28;;;;;;;22.22;59.01;101141.63;5047307;28;20068;-62
2021/09/27 11:16:30;;;;;;;7.82;3.78;;;;;;;22.10;60.01;101130.94;5048720;28;20060;-61
2021/09/27 11:19:21;;;;;;;8.37;3.33;;;;;;;22.00;60.03;101142.69;5048044;28;20095;-64
2021/09/27 11:21:48;;;;;;;7.57;3.53;;;;;;;22.00;59.98;101138.13;5047969;28;20298;-60
2021/09/27 11:24:18;;;;;;;6.40;3.42;;;;;;;21.95;60.23;101140.38;5050543;28;20365;-61
2021/09/27 11:27:06;;;;;;;10.15;3.80;;;;;;;22.11;60.49;101131.81;5036950;28;20160;-71
2021/09/27 11:29:34;;;;;;;8.55;3.80;;;;;;;21.83;60.61;101136.94;5032812;28;20104;-74
2021/09/27 11:32:30;;;;;;;10.00;3.60;;;;;;;21.60;61.02;101147.06;5049751;28;20510;-65
2021/09/27 11:35:26;;;;;;;8.10;3.75;;;;;;;21.34;62.77;101143.88;5051752;28;20051;-64
2021/09/27 11:37:51;;;;;;;8.00;3.58;;;;;;;21.10;63.31;101142.28;5052228;28;20120;-64
2021/09/27 11:40:25;;;;;;;6.67;3.97;;;;;;;20.60;66.62;101149.06;5051216;28;20157;-69
2021/09/27 11:42:56;;;;;;;7.72;3.55;;;;;;;19.89;69.42;101154.78;5045049;28;20291;-71
2021/09/27 11:45:39;;;;;;;6.75;3.70;;;;;;;19.42;71.90;101156.63;5050730;28;20373;-61
2021/09/27 11:48:40;;;;;;;8.02;3.55;;;;;;;19.18;74.90;101152.16;5044898;28;20132;-62
2021/09/27 11:51:09;;;;;;;11.43;4.20;;;;;;;18.98;76.23;101151.03;5051432;28;20072;-63
2021/09/27 11:54:10;;;;;;;8.30;4.07;;;;;;;18.82;77.19;101162.88;5051778;28;20048;-62